createdAt,value
2022-09-05T00:00:48.729Z,25
2022-09-05T00:01:53.602Z,27
2022-09-05T00:03:03.230Z,32
2022-09-05T00:04:24.841Z,35
2022-09-05T00:05:28.132Z,26
2022-09-05T00:06:47.894Z,35
2022-09-05T00:07:58.654Z,31
2022-09-05T00:08:58.604Z,31
2022-09-05T00:10:03.130Z,30
2022-09-05T00:11:42.184Z,28
2022-09-05T00:12:30.094Z,34
2022-09-05T00:13:34.837Z,36
2022-09-05T00:15:15.430Z,32
2022-09-05T00:16:08.262Z,28
2022-09-05T00:17:21.365Z,29
2022-09-05T00:20:40.729Z,33
2022-09-05T00:24:03.498Z,32
2022-09-05T00:24:17.235Z,31
2022-09-05T00:24:23.728Z,30
2022-09-05T00:24:24.544Z,29
2022-09-05T00:25:00.701Z,25
2022-09-05T00:25:59.649Z,33
2022-09-05T00:27:12.228Z,33
2022-09-05T00:28:25.521Z,28
2022-09-05T00:29:39.684Z,37
2022-09-05T00:31:06.340Z,33
2022-09-05T00:31:57.764Z,32
2022-09-05T00:33:17.112Z,32
2022-09-05T00:34:20.078Z,30
2022-09-05T00:35:30.076Z,31
2022-09-05T00:36:44.956Z,30
2022-09-05T00:37:49.477Z,32
2022-09-05T00:38:53.802Z,34
2022-09-05T00:40:05.506Z,31
2022-09-05T00:41:07.609Z,34
2022-09-05T00:42:12.014Z,36
2022-09-05T00:43:16.115Z,33
2022-09-05T00:44:20.458Z,31
2022-09-05T00:45:24.795Z,32
2022-09-05T00:46:34.228Z,29
2022-09-05T00:47:38.971Z,30
2022-09-05T00:48:49.310Z,29
2022-09-05T00:50:03.827Z,39
2022-09-05T00:51:15.974Z,36
2022-09-05T00:52:30.336Z,29
2022-09-05T00:55:22.955Z,30
2022-09-05T00:56:32.410Z,31
2022-09-05T00:57:44.994Z,34
2022-09-05T00:58:59.622Z,31
2022-09-05T01:00:10.779Z,35
2022-09-05T01:01:20.757Z,35
2022-09-05T01:02:25.578Z,35
2022-09-05T01:03:36.926Z,30
2022-09-05T01:04:49.485Z,33
2022-09-05T01:05:58.802Z,32
2022-09-05T01:07:08.290Z,26
2022-09-05T01:08:22.752Z,27
2022-09-05T01:09:37.294Z,29
2022-09-05T01:10:46.838Z,35
2022-09-05T01:11:53.758Z,25
2022-09-05T01:13:00.992Z,27
2022-09-05T01:14:15.302Z,29
2022-09-05T01:15:30.020Z,28
2022-09-05T01:16:37.282Z,34
2022-09-05T01:17:51.766Z,38
2022-09-05T01:19:03.886Z,37
2022-09-05T01:20:18.779Z,37
2022-09-05T01:21:28.145Z,45
2022-09-05T01:22:37.882Z,30
2022-09-05T01:23:52.278Z,30
2022-09-05T01:25:06.998Z,31
2022-09-05T01:26:16.250Z,33
2022-09-05T01:27:33.925Z,29
2022-09-05T01:29:54.330Z,27
2022-09-05T01:31:02.341Z,33
2022-09-05T01:32:14.234Z,29
2022-09-05T01:33:28.569Z,30
2022-09-05T01:34:40.642Z,38
2022-09-05T01:35:54.988Z,31
2022-09-05T01:37:05.070Z,28
2022-09-05T01:38:19.222Z,25
2022-09-05T01:39:36.660Z,27
2022-09-05T01:40:36.084Z,25
2022-09-05T01:41:49.409Z,36
2022-09-05T01:43:04.334Z,29
2022-09-05T01:44:13.986Z,30
2022-09-05T01:45:23.875Z,33
2022-09-05T01:46:39.844Z,29
2022-09-05T01:47:54.913Z,31
2022-09-05T01:49:02.510Z,26
2022-09-05T01:50:14.877Z,33
2022-09-05T01:51:28.577Z,28
2022-09-05T01:52:36.942Z,29
2022-09-05T01:53:46.393Z,25
2022-09-05T01:54:53.822Z,30
2022-09-05T01:56:05.638Z,33
2022-09-05T01:57:08.377Z,34
2022-09-05T01:58:23.117Z,25
2022-09-05T01:59:37.517Z,33
2022-09-05T02:00:45.109Z,33
2022-09-05T02:01:52.118Z,26
2022-09-05T02:02:56.711Z,25
2022-09-05T02:04:13.700Z,35
2022-09-05T02:05:47.395Z,32
2022-09-05T02:06:38.177Z,29
2022-09-05T02:07:47.515Z,25
2022-09-05T02:08:59.372Z,32
2022-09-05T02:10:07.146Z,28
2022-09-05T02:11:13.233Z,28
2022-09-05T02:12:17.559Z,29
2022-09-05T02:13:25.088Z,38
2022-09-05T02:14:36.967Z,25
2022-09-05T02:15:45.219Z,31
2022-09-05T02:17:03.532Z,31
2022-09-05T02:18:08.227Z,27
2022-09-05T02:19:12.695Z,33
2022-09-05T02:20:23.683Z,25
2022-09-05T02:21:36.653Z,27
2022-09-05T02:22:50.663Z,32
2022-09-05T02:23:57.987Z,32
2022-09-05T02:25:21.957Z,36
2022-09-05T02:26:10.079Z,28
2022-09-05T02:27:33.161Z,34
2022-09-05T02:28:24.739Z,31
2022-09-05T02:29:37.276Z,26
2022-09-05T02:31:11.570Z,25
2022-09-05T02:31:55.955Z,35
2022-09-05T02:33:03.019Z,31
2022-09-05T02:34:20.169Z,27
2022-09-05T02:35:32.367Z,28
2022-09-05T02:36:39.227Z,46
2022-09-05T02:38:15.651Z,43
2022-09-05T02:41:51.342Z,49
2022-09-05T02:42:30.511Z,32
2022-09-05T02:45:04.462Z,51
2022-09-05T02:45:15.595Z,50
2022-09-05T02:45:15.822Z,31
2022-09-05T02:45:25.224Z,43
2022-09-05T02:46:31.239Z,51
2022-09-05T02:47:35.455Z,40
2022-09-05T02:48:54.989Z,33
2022-09-05T02:50:48.753Z,25
2022-09-05T02:53:15.936Z,28
2022-09-05T02:56:34.726Z,27
2022-09-05T02:57:30.719Z,35
2022-09-05T02:57:31.269Z,44
2022-09-05T02:57:31.536Z,25
2022-09-05T02:57:32.053Z,25
2022-09-05T02:58:21.614Z,38
2022-09-05T02:59:35.832Z,51
2022-09-05T03:00:35.527Z,43
2022-09-05T03:01:49.131Z,44
2022-09-05T03:03:01.055Z,45
2022-09-05T03:04:10.579Z,45
2022-09-05T03:05:22.551Z,45
2022-09-05T03:06:36.971Z,51
2022-09-05T03:07:42.046Z,47
2022-09-05T03:08:54.388Z,52
2022-09-05T03:10:03.879Z,52
2022-09-05T03:11:16.106Z,49
2022-09-05T03:12:30.555Z,51
2022-09-05T03:13:49.006Z,50
2022-09-05T03:14:59.203Z,46
2022-09-05T03:16:13.697Z,39
2022-09-05T03:17:21.563Z,49
2022-09-05T03:18:36.623Z,28
2022-09-05T03:19:49.283Z,46
2022-09-05T03:21:08.807Z,31
2022-09-05T03:22:11.894Z,28
2022-09-05T03:23:21.707Z,44
2022-09-05T03:24:36.355Z,28
2022-09-05T03:27:04.555Z,35
2022-09-05T03:28:21.255Z,34
2022-09-05T03:29:39.079Z,30
2022-09-05T03:30:49.097Z,40
2022-09-05T03:32:03.765Z,33
2022-09-05T03:33:18.135Z,48
2022-09-05T03:34:32.595Z,45
2022-09-05T03:35:42.128Z,44
2022-09-05T03:36:51.623Z,44
2022-09-05T03:38:06.655Z,48
2022-09-05T03:39:22.582Z,27
2022-09-05T03:40:37.180Z,38
2022-09-05T03:41:46.631Z,34
2022-09-05T03:42:56.091Z,31
2022-09-05T03:44:08.283Z,30
2022-09-05T03:45:21.494Z,40
2022-09-05T03:46:29.604Z,42
2022-09-05T03:47:43.995Z,49
2022-09-05T03:48:58.010Z,33
2022-09-05T03:52:01.849Z,44
2022-09-05T03:53:57.139Z,34
2022-09-05T03:56:08.945Z,46
2022-09-05T03:57:09.201Z,48
2022-09-05T03:57:09.705Z,34
2022-09-05T03:57:22.197Z,49
2022-09-05T03:57:36.868Z,30
2022-09-05T03:58:55.183Z,46
2022-09-05T03:59:43.267Z,30
2022-09-05T04:01:10.955Z,47
2022-09-05T04:04:24.781Z,29
2022-09-05T04:06:28.786Z,33
2022-09-05T04:07:13.358Z,44
2022-09-05T04:08:06.067Z,46
2022-09-05T04:08:12.869Z,48
2022-09-05T04:08:32.820Z,34
2022-09-05T04:09:49.198Z,44
2022-09-05T04:10:38.900Z,36
2022-09-05T04:12:10.204Z,25
2022-09-05T04:13:34.347Z,42
2022-09-05T04:14:38.741Z,27
2022-09-05T04:15:47.951Z,41
2022-09-05T04:16:54.463Z,40
2022-09-05T04:18:13.925Z,47
2022-09-05T04:19:19.111Z,44
2022-09-05T04:22:27.847Z,47
2022-09-05T04:23:37.623Z,50
2022-09-05T04:24:48.187Z,51
2022-09-05T04:26:02.990Z,48
2022-09-05T04:27:07.296Z,51
2022-09-05T04:28:16.647Z,53
2022-09-05T04:29:29.261Z,49
2022-09-05T04:30:40.357Z,51
2022-09-05T04:31:50.017Z,47
2022-09-05T04:33:02.364Z,47
2022-09-05T04:34:16.559Z,43
2022-09-05T04:35:25.659Z,40
2022-09-05T04:36:30.003Z,36
2022-09-05T04:37:47.753Z,35
2022-09-05T04:38:42.373Z,31
2022-09-05T04:39:50.427Z,26
2022-09-05T04:40:55.047Z,31
2022-09-05T04:42:04.559Z,33
2022-09-05T04:43:19.385Z,33
2022-09-05T04:44:28.687Z,36
2022-09-05T04:47:25.603Z,26
2022-09-05T04:48:29.592Z,29
2022-09-05T04:50:18.692Z,26
2022-09-05T04:51:20.779Z,27
2022-09-05T04:52:35.226Z,30
2022-09-05T04:53:49.503Z,25
2022-09-05T04:55:02.110Z,25
2022-09-05T04:56:11.887Z,36
2022-09-05T04:57:16.300Z,37
2022-09-05T04:58:27.618Z,43
2022-09-05T05:00:33.828Z,44
2022-09-05T05:03:12.919Z,35
2022-09-05T05:06:06.786Z,42
2022-09-05T05:06:06.910Z,35
2022-09-05T05:06:07.192Z,36
2022-09-05T05:06:07.320Z,26
2022-09-05T05:06:34.970Z,42
2022-09-05T05:07:27.407Z,39
2022-09-05T05:08:42.061Z,44
2022-09-05T05:09:46.275Z,40
2022-09-05T05:11:34.905Z,44
2022-09-05T05:14:07.709Z,45
2022-09-05T05:17:54.560Z,31
2022-09-05T05:17:54.605Z,47
2022-09-05T05:18:05.334Z,40
2022-09-05T05:18:05.719Z,42
2022-09-05T05:18:35.466Z,33
2022-09-05T05:19:17.122Z,46
2022-09-05T05:20:41.019Z,39
2022-09-05T05:21:38.486Z,40
2022-09-05T05:22:48.835Z,25
2022-09-05T05:24:02.163Z,42
2022-09-05T05:25:12.319Z,35
2022-09-05T05:26:16.787Z,41
2022-09-05T05:27:26.186Z,42
2022-09-05T05:28:33.349Z,28
2022-09-05T05:29:47.418Z,29
2022-09-05T05:31:01.747Z,41
2022-09-05T05:32:11.143Z,44
2022-09-05T05:33:23.579Z,40
2022-09-05T05:34:28.131Z,39
2022-09-05T05:35:38.507Z,39
2022-09-05T05:36:40.318Z,44
2022-09-05T05:38:12.326Z,28
2022-09-05T05:39:24.657Z,44
2022-09-05T05:40:31.828Z,36
2022-09-05T05:41:35.816Z,34
2022-09-05T05:42:45.286Z,46
2022-09-05T05:43:51.106Z,45
2022-09-05T05:44:55.894Z,45
2022-09-05T05:46:00.455Z,47
2022-09-05T05:47:05.091Z,46
2022-09-05T05:48:10.810Z,53
2022-09-05T05:49:21.678Z,45
2022-09-05T05:50:28.770Z,44
2022-09-05T05:51:47.615Z,43
2022-09-05T05:52:49.235Z,35
2022-09-05T05:53:59.274Z,50
2022-09-05T05:55:45.248Z,30
2022-09-05T05:56:20.943Z,38
2022-09-05T05:57:38.511Z,32
2022-09-05T05:58:53.338Z,47
2022-09-05T06:00:00.834Z,25
2022-09-05T06:01:05.267Z,25
2022-09-05T06:02:20.965Z,32
2022-09-05T06:03:33.819Z,56
2022-09-05T06:04:44.886Z,47
2022-09-05T06:05:56.206Z,55
2022-09-05T06:07:06.481Z,33
2022-09-05T06:10:44.403Z,25
2022-09-05T06:10:52.580Z,37
2022-09-05T06:14:53.501Z,29
2022-09-05T06:14:53.703Z,28
2022-09-05T06:14:53.967Z,44
2022-09-05T06:14:54.296Z,25
2022-09-05T06:15:25.959Z,28
2022-09-05T06:16:40.371Z,29
2022-09-05T06:17:50.778Z,30
2022-09-05T06:19:05.287Z,29
2022-09-05T06:20:53.071Z,41
2022-09-05T06:22:07.998Z,32
2022-09-05T06:22:38.782Z,36
2022-09-05T06:23:54.634Z,29
2022-09-05T06:25:16.599Z,39
2022-09-05T06:26:29.214Z,39
2022-09-05T06:28:01.546Z,33
2022-09-05T06:28:56.502Z,33
2022-09-05T06:30:00.858Z,26
2022-09-05T06:31:33.658Z,30
2022-09-05T06:32:17.220Z,36
2022-09-05T06:33:31.602Z,38
2022-09-05T06:34:41.226Z,33
2022-09-05T06:35:59.146Z,30
2022-09-05T06:37:06.726Z,25
2022-09-05T06:38:16.238Z,31
2022-09-05T06:39:30.830Z,32
2022-09-05T06:40:40.315Z,36
2022-09-05T06:41:46.094Z,37
2022-09-05T06:43:00.898Z,38
2022-09-05T06:44:08.789Z,27
2022-09-05T06:45:27.238Z,33
2022-09-05T06:46:54.392Z,36
2022-09-05T06:47:40.583Z,35
2022-09-05T06:48:46.526Z,34
2022-09-05T06:49:52.294Z,34
2022-09-05T06:52:54.137Z,31
2022-09-05T06:54:13.369Z,35
2022-09-05T06:55:20.643Z,40
2022-09-05T06:56:30.694Z,28
2022-09-05T06:57:45.026Z,28
2022-09-05T06:58:54.626Z,32
2022-09-05T07:00:04.842Z,37
2022-09-05T07:01:17.067Z,29
2022-09-05T07:02:58.535Z,32
2022-09-05T07:03:32.421Z,27
2022-09-05T07:05:24.267Z,28
2022-09-05T07:06:01.778Z,29
2022-09-05T07:07:11.494Z,29
2022-09-05T07:08:35.498Z,26
2022-09-05T07:09:29.446Z,26
2022-09-05T07:10:38.708Z,31
2022-09-05T07:11:42.015Z,25
2022-09-05T07:12:54.682Z,27
2022-09-05T07:14:04.550Z,25
2022-09-05T07:15:20.602Z,33
2022-09-05T07:16:37.610Z,28
2022-09-05T07:17:53.773Z,26
2022-09-05T07:18:51.762Z,34
2022-09-05T07:20:06.656Z,28
2022-09-05T07:21:17.535Z,28
2022-09-05T07:22:29.678Z,25
2022-09-05T07:23:52.788Z,29
2022-09-05T07:24:54.902Z,37
2022-09-05T07:25:49.902Z,29
2022-09-05T07:26:55.003Z,33
2022-09-05T07:28:25.636Z,27
2022-09-05T07:29:07.366Z,27
2022-09-05T07:30:12.474Z,25
2022-09-05T07:31:26.274Z,32
2022-09-05T07:32:24.486Z,32
2022-09-05T07:33:28.218Z,35
2022-09-05T07:34:44.187Z,37
2022-09-05T07:35:54.690Z,42
2022-09-05T07:37:14.428Z,28
2022-09-05T07:38:35.331Z,27
2022-09-05T07:39:37.248Z,26
2022-09-05T07:40:51.636Z,27
2022-09-05T07:42:20.904Z,35
2022-09-05T07:43:28.226Z,28
2022-09-05T07:44:32.605Z,28
2022-09-05T07:45:40.441Z,26
2022-09-05T07:46:46.306Z,25
2022-09-05T07:47:55.850Z,28
2022-09-05T07:49:03.326Z,33
2022-09-05T07:50:48.515Z,31
2022-09-05T07:54:35.310Z,31
2022-09-05T07:56:28.656Z,27
2022-09-05T07:56:57.086Z,29
2022-09-05T07:56:58.218Z,29
2022-09-05T07:56:58.316Z,27
2022-09-05T07:58:05.446Z,27
2022-09-05T07:59:11.652Z,27
2022-09-05T08:00:26.323Z,25
2022-09-05T08:01:28.145Z,26
2022-09-05T08:02:36.543Z,28
2022-09-05T08:03:46.386Z,25
2022-09-05T08:04:56.326Z,33
2022-09-05T08:06:08.396Z,27
2022-09-05T08:07:48.425Z,25
2022-09-05T08:08:22.907Z,40
2022-09-05T08:09:59.620Z,37
2022-09-05T08:11:23.077Z,34
2022-09-05T08:11:44.866Z,26
2022-09-05T08:13:23.200Z,30
2022-09-05T08:13:53.558Z,28
2022-09-05T08:15:00.738Z,29
2022-09-05T08:16:14.282Z,31
2022-09-05T08:17:26.369Z,30
2022-09-05T08:18:26.742Z,28
2022-09-05T08:19:41.306Z,32
2022-09-05T08:20:49.596Z,31
2022-09-05T08:21:59.386Z,36
2022-09-05T08:23:03.885Z,39
2022-09-05T08:24:18.270Z,33
2022-09-05T08:25:25.579Z,38
2022-09-05T08:26:35.190Z,31
2022-09-05T08:27:47.391Z,35
2022-09-05T08:28:54.538Z,34
2022-09-05T08:30:25.293Z,34
2022-09-05T08:31:15.349Z,39
2022-09-05T08:32:25.422Z,30
2022-09-05T08:33:35.433Z,32
2022-09-05T08:34:44.394Z,33
2022-09-05T08:35:49.942Z,25
2022-09-05T08:36:57.642Z,35
2022-09-05T08:38:02.395Z,30
2022-09-05T08:39:06.905Z,40
2022-09-05T08:40:12.278Z,37
2022-09-05T08:41:43.224Z,38
2022-09-05T08:42:34.565Z,32
2022-09-05T08:44:59.544Z,31
2022-09-05T08:46:38.372Z,31
2022-09-05T08:46:38.850Z,36
2022-09-05T08:47:19.849Z,31
2022-09-05T08:48:34.866Z,34
2022-09-05T08:49:49.861Z,37
2022-09-05T08:51:04.202Z,34
2022-09-05T08:52:14.171Z,45
2022-09-05T08:53:46.032Z,34
2022-09-05T08:54:42.886Z,38
2022-09-05T08:55:54.960Z,37
2022-09-05T08:57:05.590Z,34
2022-09-05T08:58:16.273Z,25
2022-09-05T08:59:28.601Z,25
2022-09-05T09:00:36.925Z,34
2022-09-05T09:02:11.650Z,32
2022-09-05T09:03:04.175Z,28
2022-09-05T09:04:11.867Z,31
2022-09-05T09:06:01.002Z,26
2022-09-05T09:06:39.014Z,55
2022-09-05T09:07:53.286Z,34
2022-09-05T09:09:05.508Z,40
2022-09-05T09:10:12.783Z,43
2022-09-05T09:11:20.494Z,37
2022-09-05T09:12:30.204Z,37
2022-09-05T09:13:42.705Z,28
2022-09-05T09:14:49.859Z,40
2022-09-05T09:16:02.023Z,37
2022-09-05T09:17:18.017Z,29
2022-09-05T09:18:35.901Z,29
2022-09-05T09:20:55.289Z,36
2022-09-05T09:22:04.767Z,30
2022-09-05T09:23:30.478Z,52
2022-09-05T09:24:26.998Z,29
2022-09-05T09:25:37.013Z,37
2022-09-05T09:26:49.371Z,30
2022-09-05T09:28:45.111Z,26
2022-09-05T09:29:17.225Z,40
2022-09-05T09:30:21.983Z,32
2022-09-05T09:31:33.442Z,30
2022-09-05T09:32:43.138Z,29
2022-09-05T09:33:47.501Z,33
2022-09-05T09:34:58.705Z,32
2022-09-05T09:36:09.262Z,30
2022-09-05T09:37:27.583Z,35
2022-09-05T09:38:42.425Z,43
2022-09-05T09:39:52.059Z,44
2022-09-05T09:41:06.781Z,39
2022-09-05T09:42:32.192Z,31
2022-09-05T09:43:29.945Z,25
2022-09-05T09:44:39.569Z,33
2022-09-05T09:45:50.790Z,32
2022-09-05T09:47:03.373Z,36
2022-09-05T09:48:13.285Z,26
2022-09-05T09:49:22.852Z,30
2022-09-05T09:50:31.901Z,30
2022-09-05T09:51:39.309Z,39
2022-09-05T09:52:51.609Z,30
2022-09-05T09:54:01.322Z,41
2022-09-05T09:55:12.030Z,37
2022-09-05T09:56:27.273Z,26
2022-09-05T09:57:42.097Z,38
2022-09-05T09:58:54.670Z,34
2022-09-05T10:00:09.750Z,39
2022-09-05T10:01:22.895Z,25
2022-09-05T10:03:36.359Z,33
2022-09-05T10:05:01.335Z,34
2022-09-05T10:07:31.830Z,28
2022-09-05T10:10:37.545Z,27
2022-09-05T10:10:40.568Z,28
2022-09-05T10:11:16.347Z,33
2022-09-05T10:11:16.413Z,27
2022-09-05T10:11:33.825Z,40
2022-09-05T10:12:16.850Z,32
2022-09-05T10:13:31.473Z,25
2022-09-05T10:14:47.666Z,28
2022-09-05T10:15:58.491Z,27
2022-09-05T10:17:08.826Z,38
2022-09-05T10:18:24.056Z,30
2022-09-05T10:20:49.616Z,33
2022-09-05T10:23:05.793Z,33
2022-09-05T10:24:15.342Z,41
2022-09-05T10:25:20.150Z,44
2022-09-05T10:26:35.302Z,26
2022-09-05T10:27:47.369Z,25
2022-09-05T10:29:11.902Z,28
2022-09-05T10:30:11.141Z,33
2022-09-05T10:32:23.225Z,31
2022-09-05T10:34:31.179Z,32
2022-09-05T10:35:12.132Z,31
2022-09-05T10:35:22.036Z,41
2022-09-05T10:36:24.518Z,41
2022-09-05T10:37:33.146Z,49
2022-09-05T10:38:45.865Z,25
2022-09-05T10:39:59.222Z,29
2022-09-05T10:41:20.560Z,33
2022-09-05T10:42:07.897Z,44
2022-09-05T10:43:15.713Z,37
2022-09-05T10:44:20.221Z,31
2022-09-05T10:45:30.277Z,38
2022-09-05T10:46:50.987Z,33
2022-09-05T10:47:54.814Z,32
2022-09-05T10:49:07.685Z,35
2022-09-05T10:50:12.501Z,40
2022-09-05T10:51:27.653Z,38
2022-09-05T10:52:38.945Z,34
2022-09-05T10:53:48.487Z,44
2022-09-05T10:55:13.573Z,34
2022-09-05T10:56:17.457Z,30
2022-09-05T10:57:24.377Z,34
2022-09-05T10:59:20.669Z,32
2022-09-05T11:01:33.471Z,30
2022-09-05T11:02:19.744Z,31
2022-09-05T11:02:25.147Z,28
2022-09-05T11:03:22.444Z,32
2022-09-05T11:04:24.111Z,26
2022-09-05T11:05:33.946Z,30
2022-09-05T11:06:39.725Z,38
2022-09-05T11:07:44.333Z,49
2022-09-05T11:08:59.053Z,42
2022-09-05T11:10:05.070Z,48
2022-09-05T11:11:26.678Z,46
2022-09-05T11:12:26.325Z,40
2022-09-05T11:13:41.309Z,34
2022-09-05T11:14:45.749Z,52
2022-09-05T11:16:04.082Z,44
2022-09-05T11:17:02.772Z,40
2022-09-05T11:18:10.200Z,40
2022-09-05T11:19:17.369Z,45
2022-09-05T11:20:34.417Z,33
2022-09-05T11:21:35.721Z,37
2022-09-05T11:22:48.609Z,40
2022-09-05T11:23:57.009Z,33
2022-09-05T11:25:06.636Z,29
2022-09-05T11:26:11.169Z,48
2022-09-05T11:27:26.049Z,33
2022-09-05T11:28:36.899Z,25
2022-09-05T11:29:46.388Z,42
2022-09-05T11:30:54.052Z,59
2022-09-05T11:32:21.103Z,60
2022-09-05T11:35:50.031Z,34
2022-09-05T11:36:44.380Z,32
2022-09-05T11:39:31.166Z,40
2022-09-05T11:39:49.964Z,41
2022-09-05T11:40:00.814Z,36
2022-09-05T11:40:01.648Z,35
2022-09-05T11:40:27.157Z,40
2022-09-05T11:41:23.186Z,38
2022-09-05T11:42:26.924Z,36
2022-09-05T11:43:42.209Z,35
2022-09-05T11:44:52.098Z,51
2022-09-05T11:46:04.919Z,38
2022-09-05T11:47:28.558Z,51
2022-09-05T11:48:35.344Z,42
2022-09-05T11:49:42.568Z,41
2022-09-05T11:50:52.870Z,65
2022-09-05T11:52:03.488Z,57
2022-09-05T11:53:12.733Z,60
2022-09-05T11:54:25.300Z,68
2022-09-05T11:55:37.685Z,61
2022-09-05T11:56:48.401Z,57
2022-09-05T11:57:56.877Z,55
2022-09-05T11:59:10.153Z,62
2022-09-05T12:00:32.268Z,70
2022-09-05T12:01:40.965Z,73
2022-09-05T12:02:34.666Z,70
2022-09-05T12:03:57.815Z,62
2022-09-05T12:05:48.161Z,66
2022-09-05T12:06:15.297Z,67
2022-09-05T12:07:31.677Z,79
2022-09-05T12:08:44.965Z,76
2022-09-05T12:09:54.597Z,81
2022-09-05T12:11:09.561Z,73
2022-09-05T12:12:31.348Z,83
2022-09-05T12:13:31.465Z,71
2022-09-05T12:14:36.337Z,71
2022-09-05T12:16:00.607Z,75
2022-09-05T12:16:55.131Z,73
2022-09-05T12:18:12.514Z,82
2022-09-05T12:19:20.185Z,82
2022-09-05T12:20:34.838Z,72
2022-09-05T12:21:46.141Z,74
2022-09-05T12:22:59.108Z,79
2022-09-05T12:24:24.243Z,75
2022-09-05T12:27:37.266Z,83
2022-09-05T12:27:43.421Z,76
2022-09-05T12:29:09.796Z,88
2022-09-05T12:29:49.994Z,87
2022-09-05T12:30:55.122Z,80
2022-09-05T12:32:49.601Z,81
2022-09-05T12:33:58.234Z,92
2022-09-05T12:36:03.290Z,90
2022-09-05T12:36:09.225Z,77
2022-09-05T12:39:28.631Z,84
2022-09-05T12:39:56.052Z,90
2022-09-05T12:40:16.666Z,78
2022-09-05T12:40:54.450Z,81
2022-09-05T12:41:34.905Z,84
2022-09-05T12:42:20.589Z,84
2022-09-05T12:44:06.077Z,78
2022-09-05T12:44:40.891Z,87
2022-09-05T12:45:41.325Z,83
2022-09-05T12:46:48.869Z,85
2022-09-05T12:47:56.103Z,77
2022-09-05T12:49:10.208Z,82
2022-09-05T12:50:20.276Z,87
2022-09-05T12:51:45.533Z,86
2022-09-05T12:52:34.129Z,82
2022-09-05T12:53:45.377Z,80
2022-09-05T12:54:56.980Z,82
2022-09-05T12:56:21.837Z,76
2022-09-05T12:58:12.451Z,71
2022-09-05T12:59:15.089Z,74
2022-09-05T13:01:34.943Z,76
2022-09-05T13:03:00.310Z,67
2022-09-05T13:03:10.107Z,79
2022-09-05T13:03:10.173Z,68
2022-09-05T13:04:16.421Z,72
2022-09-05T13:05:03.144Z,60
2022-09-05T13:06:25.295Z,81
2022-09-05T13:07:28.382Z,82
2022-09-05T13:08:38.946Z,79
2022-09-05T13:10:11.942Z,73
2022-09-05T13:11:02.422Z,69
2022-09-05T13:14:38.471Z,61
2022-09-05T13:14:51.479Z,70
2022-09-05T13:14:52.077Z,71
2022-09-05T13:15:31.673Z,66
2022-09-05T13:16:40.179Z,70
2022-09-05T13:17:44.727Z,66
2022-09-05T13:18:51.764Z,67
2022-09-05T13:19:59.216Z,68
2022-09-05T13:21:03.800Z,64
2022-09-05T13:22:13.744Z,65
2022-09-05T13:23:18.152Z,57
2022-09-05T13:24:27.692Z,61
2022-09-05T13:25:31.988Z,69
2022-09-05T13:26:36.796Z,64
2022-09-05T13:27:51.169Z,54
2022-09-05T13:29:00.215Z,62
2022-09-05T13:30:11.881Z,51
2022-09-05T13:32:23.832Z,66
2022-09-05T13:37:01.363Z,56
2022-09-05T13:37:57.033Z,61
2022-09-05T13:37:57.188Z,53
2022-09-05T13:37:57.346Z,53
2022-09-05T13:37:57.412Z,60
2022-09-05T13:38:09.774Z,57
2022-09-05T13:39:05.224Z,53
2022-09-05T13:40:13.734Z,48
2022-09-05T13:41:26.735Z,51
2022-09-05T13:42:25.248Z,52
2022-09-05T13:43:33.905Z,51
2022-09-05T13:44:38.985Z,50
2022-09-05T13:45:48.139Z,57
2022-09-05T13:47:01.384Z,57
2022-09-05T13:48:11.128Z,56
2022-09-05T13:49:25.626Z,58
2022-09-05T13:50:20.612Z,58
2022-09-05T13:51:30.401Z,57
2022-09-05T13:52:40.340Z,56
2022-09-05T13:53:44.613Z,55
2022-09-05T13:54:51.153Z,55
2022-09-05T13:56:02.880Z,53
2022-09-05T13:57:15.289Z,50
2022-09-05T13:58:22.933Z,48
2022-09-05T13:59:35.544Z,48
2022-09-05T14:00:39.858Z,52
2022-09-05T14:01:45.654Z,56
2022-09-05T14:04:06.371Z,59
2022-09-05T14:05:19.311Z,62
2022-09-05T14:06:24.853Z,64
2022-09-05T14:07:46.088Z,59
2022-09-05T14:09:34.925Z,65
2022-09-05T14:09:57.736Z,65
2022-09-05T14:11:05.657Z,67
2022-09-05T14:12:15.538Z,61
2022-09-05T14:13:25.355Z,63
2022-09-05T14:15:59.184Z,64
2022-09-05T14:18:20.821Z,60
2022-09-05T14:19:18.332Z,58
2022-09-05T14:20:27.788Z,67
2022-09-05T14:21:37.172Z,71
2022-09-05T14:22:44.106Z,70
2022-09-05T14:23:55.073Z,67
2022-09-05T14:25:00.293Z,68
2022-09-05T14:26:03.155Z,69
2022-09-05T14:27:07.465Z,64
2022-09-05T14:28:14.663Z,54
2022-09-05T14:29:19.342Z,57
2022-09-05T14:31:18.381Z,56
2022-09-05T14:35:59.148Z,59
2022-09-05T14:36:29.221Z,57
2022-09-05T14:37:38.370Z,54
2022-09-05T14:37:47.141Z,55
2022-09-05T14:37:57.813Z,53
2022-09-05T14:37:58.025Z,60
2022-09-05T14:38:48.944Z,61
2022-09-05T14:39:55.725Z,54
2022-09-05T14:41:07.826Z,57
2022-09-05T14:42:24.073Z,54
2022-09-05T14:43:40.014Z,56
2022-09-05T14:44:54.847Z,56
2022-09-05T14:46:10.385Z,54
2022-09-05T14:47:34.833Z,53
2022-09-05T14:48:40.748Z,50
2022-09-05T14:49:49.549Z,66
2022-09-05T14:50:59.561Z,65
2022-09-05T14:52:12.901Z,65
2022-09-05T14:55:27.786Z,57
2022-09-05T14:57:23.404Z,58
2022-09-05T15:00:12.149Z,60
2022-09-05T15:01:30.177Z,61
2022-09-05T15:02:40.483Z,63
2022-09-05T15:02:46.830Z,59
2022-09-05T15:02:55.857Z,60
2022-09-05T15:04:35.435Z,59
2022-09-05T15:05:50.347Z,68
2022-09-05T15:06:55.326Z,61
2022-09-05T15:08:00.123Z,60
2022-09-05T15:11:25.209Z,67
2022-09-05T15:11:58.392Z,75
2022-09-05T15:12:25.548Z,69
2022-09-05T15:12:47.475Z,68
2022-09-05T15:13:43.989Z,69
2022-09-05T15:14:59.334Z,70
2022-09-05T15:16:14.693Z,63
2022-09-05T15:17:19.301Z,68
2022-09-05T15:18:23.663Z,70
2022-09-05T15:19:28.350Z,72
2022-09-05T15:20:44.615Z,71
2022-09-05T15:21:51.730Z,63
2022-09-05T15:22:57.489Z,66
2022-09-05T15:24:01.213Z,63
2022-09-05T15:25:12.341Z,66
2022-09-05T15:26:13.657Z,65
2022-09-05T15:27:18.650Z,66
2022-09-05T15:28:24.395Z,68
2022-09-05T15:29:34.899Z,67
2022-09-05T15:30:39.373Z,73
2022-09-05T15:31:43.741Z,62
2022-09-05T15:32:50.677Z,69
2022-09-05T15:33:55.593Z,68
2022-09-05T15:34:59.929Z,63
2022-09-05T15:36:04.537Z,73
2022-09-05T15:37:10.851Z,65
2022-09-05T15:38:19.101Z,72
2022-09-05T15:39:29.092Z,70
2022-09-05T15:40:33.505Z,72
2022-09-05T15:41:38.011Z,76
2022-09-05T15:42:42.242Z,74
2022-09-05T15:43:49.437Z,73
2022-09-05T15:45:09.015Z,72
2022-09-05T15:46:01.647Z,73
2022-09-05T15:47:09.801Z,73
2022-09-05T15:48:14.951Z,73
2022-09-05T15:49:19.353Z,74
2022-09-05T15:50:31.625Z,71
2022-09-05T15:51:41.713Z,72
2022-09-05T15:52:55.469Z,77
2022-09-05T15:53:57.373Z,80
2022-09-05T15:55:01.957Z,81
2022-09-05T15:56:09.578Z,79
2022-09-05T15:57:19.517Z,81
2022-09-05T15:58:27.193Z,74
2022-09-05T15:59:31.240Z,82
2022-09-05T16:00:40.637Z,78
2022-09-05T16:01:58.747Z,79
2022-09-05T16:02:53.056Z,94
2022-09-05T16:05:59.490Z,76
2022-09-05T16:06:23.681Z,85
2022-09-05T16:10:01.482Z,86
2022-09-05T16:10:33.058Z,90
2022-09-05T16:10:44.000Z,88
2022-09-05T16:10:55.494Z,90
2022-09-05T16:11:15.334Z,91
2022-09-05T16:12:21.943Z,98
2022-09-05T16:13:54.097Z,95
2022-09-05T16:15:51.433Z,92
2022-09-05T16:18:55.859Z,93
2022-09-05T16:21:34.334Z,98
2022-09-05T16:23:12.487Z,101
2022-09-05T16:23:12.647Z,109
2022-09-05T16:23:23.154Z,110
2022-09-05T16:23:46.917Z,117
2022-09-05T16:24:58.726Z,109
2022-09-05T16:26:08.629Z,112
2022-09-05T16:27:32.449Z,114
2022-09-05T16:28:46.797Z,117
2022-09-05T16:29:56.577Z,117
2022-09-05T16:31:24.535Z,116
2022-09-05T16:32:38.325Z,121
2022-09-05T16:34:02.848Z,130
2022-09-05T16:35:24.826Z,117
2022-09-05T16:36:27.049Z,128
2022-09-05T16:37:34.417Z,125
2022-09-05T16:38:49.437Z,140
2022-09-05T16:39:52.303Z,129
2022-09-05T16:41:06.680Z,129
2022-09-05T16:42:13.848Z,124
2022-09-05T16:43:20.922Z,129
2022-09-05T16:44:26.532Z,130
2022-09-05T16:46:09.148Z,139
2022-09-05T16:47:21.860Z,144
2022-09-05T16:48:38.764Z,142
2022-09-05T16:49:56.391Z,134
2022-09-05T16:51:15.563Z,144
2022-09-05T16:52:25.997Z,135
2022-09-05T16:53:41.679Z,141
2022-09-05T16:55:00.436Z,141
2022-09-05T16:56:06.220Z,140
2022-09-05T16:57:13.454Z,143
2022-09-05T16:58:28.997Z,141
2022-09-05T17:01:20.669Z,140
2022-09-05T17:02:35.848Z,146
2022-09-05T17:03:43.285Z,145
2022-09-05T17:05:20.750Z,144
2022-09-05T17:06:29.933Z,146
2022-09-05T17:07:44.352Z,143
2022-09-05T17:09:00.824Z,146